Weslaco Annex Farm's Hourly Summary for Monday, July 9, 2018
Hour Temp
(f)
RH
(%)
Solar Rad.
(MJ/m2)
Rainfall
(in)
Wind
(mph)
7/9/2018 12:00 AM 78 92 0 0 3.87
7/9/2018 1:00 AM 78 93 0 0 4.34
7/9/2018 2:00 AM 78 94 0 0 3.83
7/9/2018 3:00 AM 77 95 0 0 3.19
7/9/2018 4:00 AM 77 96 0 0 2.07
7/9/2018 5:00 AM 77 96 0 0 2.17
7/9/2018 6:00 AM 76 97 0 0 2.23
7/9/2018 7:00 AM 77 96 0.1 0 2.25
7/9/2018 8:00 AM 81 90 0.54 0 4.78
7/9/2018 9:00 AM 84 82 1 0 8.06
7/9/2018 10:00 AM 86 73 1.46 0 9.54
7/9/2018 11:00 AM 89 64 1.87 0 8.34
7/9/2018 12:00 PM 91 56 1.85 0 8.88
7/9/2018 1:00 PM 93 48 1.7 0 9.14
7/9/2018 2:00 PM 93 45 1.7 0 9.47
7/9/2018 3:00 PM 93 45 1.52 0 9.59
7/9/2018 4:00 PM 94 45 1.69 0 9.46
7/9/2018 5:00 PM 93 46 1.19 0 9.28
7/9/2018 6:00 PM 91 49 0.69 0 10.19
7/9/2018 7:00 PM 88 52 0.26 0 10.31
7/9/2018 8:00 PM 85 64 0.02 0 8.69
7/9/2018 9:00 PM 83 74 0 0 6.57
7/9/2018 10:00 PM 81 82 0 0 4.36
7/9/2018 11:00 PM 79 88 0 0 3.02
Data Summary 84 73 15.59 0.00 6.40